Time;durP1;ratioP1;P1;durP2;ratioP2;P2;SDS_P1;SDS_P2;PMS_P1;PMS_P2;Temp;Humidity;BMP_temperature;BMP_pressure;BME280_temperature;BME280_humidity;BME280_pressure;Samples;Min_cycle;Max_cycle;Signal;HPM_P1;HPM_P2
2022/02/13 00:00:12;;;;;;;4.47;3.50;;;;;;;2.91;93.01;100537.91;4910793;29;20193;-76
2022/02/13 00:02:41;;;;;;;4.80;3.60;;;;;;;2.93;92.55;100547.38;4908594;29;20281;-76
2022/02/13 00:05:13;;;;;;;3.67;3.20;;;;;;;2.92;92.93;100535.13;4926300;29;20205;-76
2022/02/13 00:07:40;;;;;;;4.00;3.20;;;;;;;2.92;91.99;100535.13;4927298;29;20613;-76
2022/02/13 00:10:12;;;;;;;4.53;3.30;;;;;;;3.00;90.34;100524.59;4926708;29;20217;-76
2022/02/13 00:12:47;;;;;;;3.77;3.10;;;;;;;2.86;91.78;100529.56;4927411;29;20195;-76
2022/02/13 00:15:14;;;;;;;4.57;3.30;;;;;;;3.01;89.94;100525.44;4926102;29;20182;-76
2022/02/13 00:17:41;;;;;;;3.70;3.30;;;;;;;2.94;90.52;100514.59;4925650;29;20194;-76
2022/02/13 00:20:20;;;;;;;5.73;3.13;;;;;;;2.86;90.91;100524.28;4912421;29;20182;-76
2022/02/13 00:22:49;;;;;;;3.40;3.10;;;;;;;2.86;90.47;100525.13;4913717;29;20551;-77
2022/02/13 00:25:17;;;;;;;3.77;3.20;;;;;;;2.83;89.35;100504.25;4930267;29;20214;-76
2022/02/13 00:27:45;;;;;;;3.93;2.83;;;;;;;2.93;88.65;100514.78;4930359;29;20646;-76
2022/02/13 00:30:14;;;;;;;4.50;3.10;;;;;;;2.93;87.97;100517.44;4912986;29;20198;-76
2022/02/13 00:32:43;;;;;;;3.90;2.97;;;;;;;2.94;88.21;100514.59;4913254;29;20218;-76
2022/02/13 00:35:14;;;;;;;3.13;2.70;;;;;;;3.07;86.25;100520.41;4913798;29;20190;-76
2022/02/13 00:37:41;;;;;;;3.37;3.03;;;;;;;2.99;86.66;100503.56;4897995;29;20186;-77
2022/02/13 00:40:13;;;;;;;3.23;2.83;;;;;;;3.05;85.37;100510.91;4929098;29;20182;-76
2022/02/13 00:42:42;;;;;;;3.10;2.80;;;;;;;3.09;84.73;100513.13;4930546;29;20610;-76
2022/02/13 00:45:11;;;;;;;3.70;2.97;;;;;;;3.12;84.71;100505.88;4897568;29;20230;-76
2022/02/13 00:47:38;;;;;;;3.23;2.80;;;;;;;3.18;84.40;100499.94;4930486;29;20614;-76
2022/02/13 00:50:07;;;;;;;4.20;2.83;;;;;;;3.16;84.00;100500.13;4913873;29;20285;-76
2022/02/13 00:52:40;;;;;;;3.97;2.97;;;;;;;3.21;83.44;100500.50;4930147;29;20262;-76
2022/02/13 00:55:13;;;;;;;3.47;2.60;;;;;;;3.09;84.59;100499.03;4930508;29;20191;-76
2022/02/13 00:57:44;;;;;;;4.57;2.80;;;;;;;3.25;83.22;100493.09;4929698;29;20183;-76
2022/02/13 01:00:14;;;;;;;3.63;2.90;;;;;;;3.08;83.65;100492.91;4931297;29;20221;-76
2022/02/13 01:02:41;;;;;;;3.07;2.77;;;;;;;3.06;84.05;100494.91;4913623;29;20683;-76
2022/02/13 01:05:08;;;;;;;3.00;2.70;;;;;;;3.09;84.34;100485.81;4930210;29;20194;-76
2022/02/13 01:07:35;;;;;;;3.23;2.60;;;;;;;3.07;84.54;100498.38;4930151;29;20194;-76
2022/02/13 01:10:08;;;;;;;4.90;3.10;;;;;;;3.14;83.34;100485.34;4930348;29;20546;-76
2022/02/13 01:12:37;;;;;;;4.10;2.77;;;;;;;3.08;83.51;100481.47;4929726;29;20174;-76
2022/02/13 01:15:04;;;;;;;4.67;2.83;;;;;;;3.01;84.13;100475.97;4935159;23;20285;-76
2022/02/13 01:17:31;;;;;;;3.23;2.93;;;;;;;3.16;83.97;100481.59;4912758;29;20222;-76
2022/02/13 01:20:00;;;;;;;3.10;2.80;;;;;;;3.10;84.28;100484.81;4928865;29;20546;-76
2022/02/13 01:22:27;;;;;;;3.87;2.83;;;;;;;3.10;83.64;100472.44;4918931;23;20238;-76
2022/02/13 01:24:56;;;;;;;3.60;2.90;;;;;;;3.07;83.56;100472.75;4912661;29;20213;-76
2022/02/13 01:27:24;;;;;;;3.17;2.83;;;;;;;3.06;83.81;100470.22;4927608;29;20182;-76
2022/02/13 01:29:52;;;;;;;3.50;2.67;;;;;;;3.05;83.43;100469.41;4911878;29;20190;-76
2022/02/13 01:32:18;;;;;;;2.87;2.57;;;;;;;2.95;84.28;100458.03;4927945;29;20246;-76
2022/02/13 01:34:45;;;;;;;2.90;2.60;;;;;;;2.99;83.84;100462.03;4928990;29;20206;-76
2022/02/13 01:37:12;;;;;;;3.10;2.80;;;;;;;3.10;82.62;100451.25;4927080;29;20233;-76
2022/02/13 01:39:39;;;;;;;4.50;3.10;;;;;;;3.09;82.95;100467.28;4911492;29;20221;-77
2022/02/13 01:42:10;;;;;;;3.83;2.90;;;;;;;3.01;83.51;100459.25;4926364;29;20190;-76
2022/02/13 01:44:37;;;;;;;2.80;2.50;;;;;;;2.98;84.46;100462.22;4934965;23;20266;-76
2022/02/13 01:47:09;;;;;;;2.90;2.60;;;;;;;2.89;84.20;100445.41;4911451;29;20205;-77
2022/02/13 01:49:36;;;;;;;4.07;2.73;;;;;;;2.93;83.88;100441.50;4928353;29;20498;-76
2022/02/13 01:52:04;;;;;;;3.37;2.80;;;;;;;3.03;83.09;100444.88;4929016;29;20210;-76
2022/02/13 01:54:39;;;;;;;4.13;2.77;;;;;;;2.99;82.54;100440.03;4911229;29;20186;-76
2022/02/13 01:57:17;;;;;;;2.97;2.63;;;;;;;2.90;83.99;100449.72;4927148;29;20189;-76
2022/02/13 01:59:46;;;;;;;3.90;2.80;;;;;;;2.91;83.68;100437.31;4911870;29;20184;-76
2022/02/13 02:02:13;;;;;;;3.17;2.63;;;;;;;2.73;84.76;100426.72;4927592;29;20201;-76
2022/02/13 02:04:41;;;;;;;3.00;2.70;;;;;;;2.81;84.57;100424.16;4925191;29;20218;-76
2022/02/13 02:07:09;;;;;;;3.77;2.80;;;;;;;2.90;83.40;100430.34;4909756;29;20191;-76
2022/02/13 02:09:36;;;;;;;3.77;2.70;;;;;;;2.87;83.84;100426.22;4909322;29;20196;-76
2022/02/13 02:12:06;;;;;;;4.00;2.67;;;;;;;2.96;82.52;100416.53;4909314;29;20187;-76
2022/02/13 02:14:33;;;;;;;3.07;2.73;;;;;;;2.91;82.90;100414.31;4925881;29;20217;-76
2022/02/13 02:17:00;;;;;;;3.47;2.97;;;;;;;2.89;82.87;100410.19;4909036;29;20191;-77
2022/02/13 02:19:30;;;;;;;3.10;2.40;;;;;;;2.89;83.00;100411.00;4925955;29;20219;-76
2022/02/13 02:22:00;;;;;;;3.20;2.63;;;;;;;2.97;82.03;100411.09;4925891;29;20289;-76
2022/02/13 02:24:27;;;;;;;3.07;2.60;;;;;;;2.87;82.94;100401.56;4926834;29;20214;-76
2022/02/13 02:26:54;;;;;;;3.70;2.87;;;;;;;2.95;82.83;100409.56;4932725;23;20329;-76
2022/02/13 02:29:25;;;;;;;3.50;2.90;;;;;;;2.87;82.50;100405.03;4926530;29;20266;-76
2022/02/13 02:31:56;;;;;;;2.97;2.50;;;;;;;2.90;82.04;100398.59;4909302;29;20179;-76
2022/02/13 02:34:23;;;;;;;3.20;2.63;;;;;;;2.80;82.96;100392.56;4926492;29;20201;-77
2022/02/13 02:36:51;;;;;;;2.77;2.30;;;;;;;2.83;82.70;100392.25;4925109;29;20198;-76
2022/02/13 02:39:18;;;;;;;2.97;2.57;;;;;;;2.85;83.19;100387.63;4925826;29;20258;-76
2022/02/13 02:41:45;;;;;;;3.80;2.73;;;;;;;2.93;81.92;100391.19;4908728;29;20224;-76
2022/02/13 02:44:13;;;;;;;2.80;2.60;;;;;;;2.93;81.98;100398.31;4930921;23;20245;-77
2022/02/13 02:46:40;;;;;;;4.67;3.03;;;;;;;2.97;81.73;100389.06;4893225;29;20178;-76
2022/02/13 02:49:07;;;;;;;3.47;2.77;;;;;;;2.93;81.72;100380.63;4907967;29;20194;-76
2022/02/13 02:51:34;;;;;;;3.33;2.70;;;;;;;2.98;81.00;100386.28;4926425;29;20643;-76
2022/02/13 02:54:07;;;;;;;3.53;2.47;;;;;;;2.87;81.91;100386.50;4925281;29;20190;-76
2022/02/13 02:56:34;;;;;;;3.63;2.70;;;;;;;2.89;80.86;100387.16;4907993;29;20587;-76
2022/02/13 02:59:01;;;;;;;3.17;2.57;;;;;;;2.90;81.67;100380.06;4907463;29;20194;-76
2022/02/13 03:01:29;;;;;;;3.13;2.70;;;;;;;2.96;80.95;100384.75;4908194;29;20209;-76
2022/02/13 03:03:56;;;;;;;3.47;2.67;;;;;;;2.95;81.09;100381.28;4924772;29;20522;-76
2022/02/13 03:06:23;;;;;;;2.93;2.63;;;;;;;2.86;81.34;100373.41;4907720;29;20190;-76
2022/02/13 03:08:50;;;;;;;3.73;2.37;;;;;;;2.81;81.96;100370.38;4925001;29;20234;-76
2022/02/13 03:11:16;;;;;;;3.43;2.90;;;;;;;2.75;81.73;100377.16;4908168;29;20192;-76
2022/02/13 03:13:44;;;;;;;3.43;2.77;;;;;;;2.73;82.43;100378.25;4908390;29;20303;-76
2022/02/13 03:16:11;;;;;;;3.07;2.77;;;;;;;2.79;81.90;100375.84;4908789;29;20206;-76
2022/02/13 03:18:39;;;;;;;2.97;2.60;;;;;;;2.74;82.37;100369.34;4924308;29;20237;-76
2022/02/13 03:21:06;;;;;;;3.77;3.00;;;;;;;2.82;81.62;100380.00;4924388;29;20190;-77
2022/02/13 03:23:34;;;;;;;3.77;2.50;;;;;;;2.92;80.20;100375.47;4907581;29;20239;-76
2022/02/13 03:26:01;;;;;;;4.00;3.00;;;;;;;2.88;80.47;100379.41;4924349;29;20194;-76
2022/02/13 03:28:28;;;;;;;2.90;2.60;;;;;;;2.76;80.00;100362.91;4908467;29;20197;-76
2022/02/13 03:30:54;;;;;;;4.63;2.90;;;;;;;2.83;80.13;100376.38;4907895;23;20289;-76
2022/02/13 03:33:21;;;;;;;3.90;2.60;;;;;;;2.70;80.84;100368.81;4892438;29;20242;-76
2022/02/13 03:35:47;;;;;;;3.80;2.80;;;;;;;2.72;80.61;100376.59;4909268;29;20198;-77
2022/02/13 03:38:18;;;;;;;3.50;2.67;;;;;;;2.72;80.64;100380.06;4931087;23;20257;-76
2022/02/13 03:40:51;;;;;;;3.33;2.57;;;;;;;2.75;80.50;100384.25;4910325;29;21160;-76
2022/02/13 03:43:18;;;;;;;3.00;2.57;;;;;;;2.74;80.48;100386.06;4909925;29;20305;-76
2022/02/13 03:45:47;;;;;;;3.20;2.60;;;;;;;2.83;79.29;100374.56;4926887;29;20194;-76
2022/02/13 03:48:16;;;;;;;2.70;2.40;;;;;;;2.88;79.08;100376.75;4931464;23;20520;-77
2022/02/13 03:50:47;;;;;;;2.90;2.60;;;;;;;2.79;79.41;100373.22;4894243;29;20258;-76
2022/02/13 03:53:15;;;;;;;3.20;2.90;;;;;;;2.75;80.45;100377.16;4933748;23;20238;-76
2022/02/13 03:55:42;;;;;;;3.10;2.73;;;;;;;2.80;79.68;100380.13;4911457;29;20921;-76
2022/02/13 03:58:10;;;;;;;3.03;2.50;;;;;;;2.79;79.23;100373.22;4929127;29;20186;-76
2022/02/13 04:00:36;;;;;;;3.13;2.77;;;;;;;2.86;78.54;100376.06;4930359;29;20198;-76
2022/02/13 04:03:03;;;;;;;2.77;2.30;;;;;;;2.88;78.18;100374.09;4914514;29;20210;-76
2022/02/13 04:05:30;;;;;;;2.93;2.40;;;;;;;2.96;77.50;100380.31;4928920;29;20214;-76
2022/02/13 04:07:57;;;;;;;3.10;2.53;;;;;;;2.87;78.16;100375.09;4929490;29;20210;-76
2022/02/13 04:10:24;;;;;;;3.13;2.60;;;;;;;2.75;79.43;100385.09;4911059;29;20198;-77
2022/02/13 04:12:52;;;;;;;5.10;2.70;;;;;;;2.74;79.48;100372.81;4930164;29;20198;-76
2022/02/13 04:15:21;;;;;;;2.90;2.40;;;;;;;2.88;78.59;100374.94;4928844;29;20198;-76
2022/02/13 04:17:48;;;;;;;3.43;2.43;;;;;;;2.84;78.16;100362.16;4928572;29;20186;-77
2022/02/13 04:20:16;;;;;;;3.93;2.50;;;;;;;2.79;79.26;100372.38;4927811;29;20194;-76
2022/02/13 04:22:47;;;;;;;3.73;2.57;;;;;;;2.80;79.17;100366.09;4912711;29;20192;-76
2022/02/13 04:25:14;;;;;;;3.17;2.50;;;;;;;2.73;79.62;100365.03;4912159;29;20292;-77
2022/02/13 04:27:41;;;;;;;2.70;2.47;;;;;;;2.71;78.96;100357.22;4951153;23;20258;-77
2022/02/13 04:30:09;;;;;;;3.30;2.60;;;;;;;2.78;79.11;100358.31;4929927;29;20186;-76
2022/02/13 04:32:37;;;;;;;2.87;2.53;;;;;;;2.90;78.29;100359.72;4912926;29;20192;-76
2022/02/13 04:35:27;;;;;;;3.30;2.60;;;;;;;2.85;78.71;100346.13;4929175;29;20189;-76
2022/02/13 04:38:11;;;;;;;3.07;2.50;;;;;;;2.78;79.41;100354.81;4942006;23;20238;-77
2022/02/13 04:40:38;;;;;;;3.17;2.47;;;;;;;2.73;80.52;100347.34;4892689;29;20234;-76
2022/02/13 04:43:07;;;;;;;3.03;2.67;;;;;;;2.67;81.02;100347.94;4909477;29;20254;-76
2022/02/13 04:45:34;;;;;;;2.90;2.60;;;;;;;2.65;81.95;100349.94;4893554;29;20258;-76
2022/02/13 04:48:01;;;;;;;2.87;2.57;;;;;;;2.48;83.05;100342.78;4928108;23;20542;-76
2022/02/13 04:50:29;;;;;;;3.23;2.77;;;;;;;2.38;84.04;100347.34;4929419;29;20246;-76
2022/02/13 04:52:56;;;;;;;4.17;2.60;;;;;;;2.32;84.49;100355.88;4911911;29;20193;-76
2022/02/13 04:55:23;;;;;;;3.13;2.83;;;;;;;2.27;85.27;100348.38;4912868;29;20206;-76
2022/02/13 04:57:54;;;;;;;3.97;2.77;;;;;;;2.19;85.51;100353.59;4914184;29;20190;-78
2022/02/13 05:00:21;;;;;;;3.00;2.60;;;;;;;2.05;86.77;100348.81;4913214;29;20179;-76
2022/02/13 05:02:52;;;;;;;4.23;2.90;;;;;;;2.13;86.45;100349.72;4927964;29;20190;-77
2022/02/13 05:05:23;;;;;;;3.73;2.73;;;;;;;2.06;86.78;100353.91;4930371;29;20182;-76
2022/02/13 05:07:51;;;;;;;3.00;2.67;;;;;;;2.05;87.43;100341.66;4930363;29;20205;-76
2022/02/13 05:10:17;;;;;;;3.10;2.80;;;;;;;2.09;85.97;100353.66;4930574;29;20226;-76
2022/02/13 05:12:57;;;;;;;3.70;2.80;;;;;;;2.03;87.25;100348.94;4923571;23;20241;-76
2022/02/13 05:15:24;;;;;;;3.40;2.83;;;;;;;1.98;87.39;100353.00;4878027;29;20275;-76
2022/02/13 05:17:52;;;;;;;4.00;2.90;;;;;;;1.96;88.11;100341.75;4911542;29;20277;-76
2022/02/13 05:20:19;;;;;;;3.60;3.00;;;;;;;1.94;87.79;100349.81;4895793;29;20226;-77
2022/02/13 05:22:46;;;;;;;4.23;3.30;;;;;;;1.99;87.29;100344.09;4902773;23;20190;-76
2022/02/13 05:25:15;;;;;;;3.53;2.80;;;;;;;2.10;87.25;100343.91;4894933;29;20207;-76
2022/02/13 05:27:43;;;;;;;4.23;3.50;;;;;;;2.00;87.85;100346.59;4878921;29;20207;-76
2022/02/13 05:30:10;;;;;;;3.33;3.03;;;;;;;1.89;88.91;100343.31;4910868;29;20240;-76
2022/02/13 05:32:37;;;;;;;3.97;3.13;;;;;;;2.04;88.14;100349.78;4925139;23;20671;-76
2022/02/13 05:35:09;;;;;;;3.43;2.97;;;;;;;1.91;88.29;100352.78;4915073;29;20182;-75
2022/02/13 05:37:48;;;;;;;3.23;2.90;;;;;;;1.95;88.42;100342.72;4929086;29;20651;-76
2022/02/13 05:40:16;;;;;;;4.20;2.73;;;;;;;1.86;89.19;100347.09;4912743;29;20217;-76
2022/02/13 05:42:48;;;;;;;3.00;2.70;;;;;;;1.76;89.23;100341.00;4927215;29;20249;-77
2022/02/13 05:45:18;;;;;;;3.43;2.77;;;;;;;1.91;89.41;100346.66;4927496;29;20226;-76
2022/02/13 05:47:48;;;;;;;3.13;2.70;;;;;;;1.91;88.71;100354.56;4910854;29;20195;-76
2022/02/13 05:50:21;;;;;;;4.67;2.87;;;;;;;1.81;88.92;100341.41;4911863;29;20201;-77
2022/02/13 05:52:48;;;;;;;3.17;2.87;;;;;;;1.76;89.98;100348.94;4927243;29;20614;-76
2022/02/13 05:55:15;;;;;;;3.20;2.90;;;;;;;1.74;90.67;100340.31;4911035;29;20250;-76
2022/02/13 05:57:45;;;;;;;3.00;2.70;;;;;;;1.77;90.41;100347.97;4927971;29;20186;-76
2022/02/13 06:00:13;;;;;;;3.67;2.90;;;;;;;1.69;91.13;100346.03;4916355;23;20233;-76
2022/02/13 06:02:44;;;;;;;3.70;2.93;;;;;;;1.68;91.58;100348.84;4879108;29;20277;-77
2022/02/13 06:05:10;;;;;;;5.23;3.70;;;;;;;1.70;91.74;100360.91;4903320;23;20278;-78
2022/02/13 06:07:42;;;;;;;4.30;3.53;;;;;;;1.70;91.96;100360.06;4930636;29;20221;-76
2022/02/13 06:10:10;;;;;;;5.50;3.80;;;;;;;1.78;90.87;100360.19;4946293;29;20681;-76
2022/02/13 06:12:37;;;;;;;4.67;2.83;;;;;;;1.85;90.56;100358.63;4929133;29;20269;-76
2022/02/13 06:15:05;;;;;;;4.83;3.77;;;;;;;1.87;90.78;100366.41;4911840;29;20193;-76
2022/02/13 06:17:32;;;;;;;3.50;2.90;;;;;;;1.80;90.72;100363.50;4913888;29;20194;-76
2022/02/13 06:20:06;;;;;;;3.63;3.07;;;;;;;1.80;91.06;100360.03;4912233;29;20237;-76
2022/02/13 06:22:32;;;;;;;4.13;3.33;;;;;;;1.80;90.86;100362.69;4946947;29;20232;-76
2022/02/13 06:25:02;;;;;;;4.57;4.00;;;;;;;1.75;91.82;100363.94;4950967;23;20276;-76
2022/02/13 06:27:29;;;;;;;5.67;3.50;;;;;;;1.77;91.63;100367.25;4928030;29;20201;-76
2022/02/13 06:29:56;;;;;;;5.53;3.70;;;;;;;1.85;91.23;100374.47;4895423;29;20563;-76
2022/02/13 06:32:23;;;;;;;4.80;3.33;;;;;;;1.97;90.12;100359.25;4911382;29;20287;-76
2022/02/13 06:34:52;;;;;;;4.40;3.23;;;;;;;2.05;90.13;100376.03;4933607;23;20234;-76
2022/02/13 06:37:23;;;;;;;3.40;3.00;;;;;;;2.07;89.05;100363.53;4896337;29;20603;-77
2022/02/13 06:39:53;;;;;;;3.97;3.10;;;;;;;2.05;90.21;100373.41;4927086;29;20186;-76
2022/02/13 06:42:23;;;;;;;4.90;3.73;;;;;;;2.23;89.15;100373.47;4910891;29;20647;-76
2022/02/13 06:44:50;;;;;;;3.93;3.53;;;;;;;2.18;89.11;100373.06;4927605;29;20241;-77
2022/02/13 06:47:26;;;;;;;5.57;3.63;;;;;;;2.34;88.35;100372.41;4927855;29;20218;-76
2022/02/13 06:49:53;;;;;;;4.47;3.50;;;;;;;2.33;87.77;100373.41;4926397;29;20222;-76
2022/02/13 06:52:24;;;;;;;4.27;3.10;;;;;;;2.41;87.04;100381.41;4928746;29;20206;-76
2022/02/13 06:54:51;;;;;;;3.60;3.30;;;;;;;2.56;86.27;100372.00;4929004;29;20234;-76
2022/02/13 06:57:19;;;;;;;3.73;3.27;;;;;;;2.64;85.72;100366.78;4919396;23;20226;-76
2022/02/13 06:59:55;;;;;;;5.37;3.40;;;;;;;2.61;85.79;100359.94;4927164;29;20232;-77
2022/02/13 07:02:27;;;;;;;3.50;3.07;;;;;;;2.72;84.64;100356.25;4926035;29;20277;-76
2022/02/13 07:04:56;;;;;;;3.80;3.27;;;;;;;2.79;84.12;100361.78;4928089;29;20254;-76
2022/02/13 07:07:24;;;;;;;4.20;3.37;;;;;;;2.86;84.27;100362.81;4929496;29;20205;-77
2022/02/13 07:09:51;;;;;;;4.00;3.60;;;;;;;2.97;84.06;100370.53;4926931;29;20289;-76
2022/02/13 07:12:20;;;;;;;4.93;3.20;;;;;;;3.01;83.68;100359.50;4925406;29;20194;-76
2022/02/13 07:14:48;;;;;;;3.70;3.27;;;;;;;3.02;84.37;100357.69;4927506;29;20198;-76
2022/02/13 07:17:15;;;;;;;4.67;3.77;;;;;;;3.08;84.18;100357.03;4910827;29;20184;-76
2022/02/13 07:19:45;;;;;;;3.90;3.37;;;;;;;3.17;83.41;100355.31;4911290;29;20212;-76
2022/02/13 07:22:13;;;;;;;4.73;3.80;;;;;;;3.27;82.51;100353.38;4891259;29;20226;-76
2022/02/13 07:24:44;;;;;;;4.77;3.50;;;;;;;3.29;81.80;100352.25;4909221;29;20206;-76
2022/02/13 07:27:13;;;;;;;4.57;3.30;;;;;;;3.49;79.93;100356.38;4893505;29;20183;-76
2022/02/13 07:29:41;;;;;;;5.03;3.90;;;;;;;3.58;80.56;100359.06;4911024;29;20576;-76
2022/02/13 07:32:09;;;;;;;4.17;3.50;;;;;;;3.59;79.56;100360.72;4896494;29;20600;-76
2022/02/13 07:34:41;;;;;;;4.17;3.60;;;;;;;3.62;79.50;100358.59;4929747;23;20245;-77
2022/02/13 07:37:13;;;;;;;5.07;3.97;;;;;;;3.70;78.27;100357.78;4901963;29;20197;-76
2022/02/13 07:39:41;;;;;;;5.67;4.00;;;;;;;3.70;78.83;100357.78;4931422;29;20186;-76
2022/02/13 07:42:08;;;;;;;5.17;4.00;;;;;;;3.75;78.71;100360.78;4930958;29;20225;-76
2022/02/13 07:44:37;;;;;;;4.80;3.43;;;;;;;3.94;76.79;100364.03;4930903;29;20210;-76
2022/02/13 07:47:06;;;;;;;5.17;3.70;;;;;;;4.02;76.35;100349.97;4931793;29;20214;-76
2022/02/13 07:49:32;;;;;;;4.17;3.40;;;;;;;4.05;75.95;100354.16;4927824;29;20280;-76
2022/02/13 07:51:59;;;;;;;4.47;3.60;;;;;;;4.13;75.50;100360.31;4895185;29;20538;-76
2022/02/13 07:54:27;;;;;;;5.23;4.10;;;;;;;4.10;76.09;100362.47;4927072;29;20236;-76
2022/02/13 07:56:54;;;;;;;4.40;4.00;;;;;;;4.24;76.12;100367.16;4926524;29;20206;-79
2022/02/13 07:59:22;;;;;;;4.50;3.40;;;;;;;4.25;80.24;100364.31;4923617;29;20749;-78
2022/02/13 08:01:49;;;;;;;3.80;3.50;;;;;;;4.40;78.60;100357.41;4908695;29;20251;-78
2022/02/13 08:04:15;;;;;;;5.40;3.97;;;;;;;4.65;77.03;100354.78;4908529;29;20301;-78
2022/02/13 08:06:42;;;;;;;4.37;3.97;;;;;;;4.84;75.46;100360.63;4909355;29;20213;-78
2022/02/13 08:09:09;;;;;;;5.43;4.33;;;;;;;4.96;74.26;100357.63;4925545;29;20206;-78
2022/02/13 08:11:36;;;;;;;4.77;4.27;;;;;;;5.07;74.59;100366.13;4925416;29;20552;-78
2022/02/13 08:14:02;;;;;;;4.93;4.07;;;;;;;5.16;72.94;100366.94;4908190;29;20217;-81
2022/02/13 08:16:29;;;;;;;4.63;4.17;;;;;;;5.18;72.71;100360.44;4908502;29;20277;-78
2022/02/13 08:18:56;;;;;;;6.10;3.77;;;;;;;5.29;72.37;100356.63;4908044;29;20230;-78
2022/02/13 08:21:22;;;;;;;5.53;3.97;;;;;;;5.36;72.59;100348.81;4893203;29;20499;-79
2022/02/13 08:23:50;;;;;;;4.47;4.00;;;;;;;5.50;71.67;100356.09;4924431;29;20191;-82
2022/02/13 08:26:17;;;;;;;6.23;4.97;;;;;;;5.67;70.35;100357.72;4893188;29;20191;-79
2022/02/13 08:28:44;;;;;;;5.10;4.23;;;;;;;5.65;69.92;100357.88;4924826;29;20572;-79
2022/02/13 08:31:11;;;;;;;7.40;4.90;;;;;;;5.61;69.79;100356.56;4924745;29;20222;-79
2022/02/13 08:33:37;;;;;;;5.43;4.87;;;;;;;5.74;69.31;100354.19;4904736;29;20492;-78
2022/02/13 08:36:04;;;;;;;5.87;5.13;;;;;;;5.91;67.75;100351.53;4905628;29;20222;-79
2022/02/13 08:38:31;;;;;;;6.70;4.83;;;;;;;5.96;68.70;100350.00;4906612;29;20281;-80
2022/02/13 08:40:58;;;;;;;5.97;4.90;;;;;;;5.99;67.81;100359.47;4924901;29;20191;-79
2022/02/13 08:43:25;;;;;;;7.53;5.10;;;;;;;6.03;67.78;100342.16;4925267;29;20190;-77
2022/02/13 08:45:54;;;;;;;6.33;5.00;;;;;;;6.13;67.33;100351.59;4908383;29;20206;-78
2022/02/13 08:48:21;;;;;;;5.80;5.10;;;;;;;6.16;67.48;100350.41;4925239;29;20191;-79
2022/02/13 08:50:47;;;;;;;6.90;5.20;;;;;;;6.20;66.02;100338.44;4895141;29;20209;-76
2022/02/13 08:53:17;;;;;;;5.80;5.00;;;;;;;6.17;66.04;100339.59;4907264;29;20289;-76
2022/02/13 08:55:44;;;;;;;5.97;5.07;;;;;;;6.27;66.79;100343.88;4926057;29;20277;-76
2022/02/13 08:58:11;;;;;;;5.93;4.93;;;;;;;6.14;65.57;100347.94;4910367;29;20552;-76
2022/02/13 09:00:38;;;;;;;5.20;4.63;;;;;;;6.05;66.66;100345.47;4909869;29;20195;-76
2022/02/13 09:03:05;;;;;;;5.83;4.73;;;;;;;6.04;66.69;100333.19;4927612;29;20202;-76
2022/02/13 09:05:34;;;;;;;6.97;5.30;;;;;;;6.15;66.49;100336.31;4912827;29;20206;-76
2022/02/13 09:08:02;;;;;;;5.07;4.30;;;;;;;6.11;66.28;100342.94;4913383;29;20498;-77
2022/02/13 09:10:29;;;;;;;9.53;6.57;;;;;;;6.23;64.93;100330.09;4932041;29;20195;-77
2022/02/13 09:12:56;;;;;;;6.13;5.10;;;;;;;6.27;65.30;100331.41;4914920;29;20240;-76
2022/02/13 09:15:25;;;;;;;7.10;5.50;;;;;;;6.29;64.07;100326.75;4913470;29;20178;-77
2022/02/13 09:17:51;;;;;;;6.90;5.70;;;;;;;6.37;64.04;100331.19;4929769;29;20217;-77
2022/02/13 09:20:18;;;;;;;6.57;5.43;;;;;;;6.43;62.55;100328.66;4912588;29;20681;-77
2022/02/13 09:22:45;;;;;;;5.90;5.00;;;;;;;6.53;61.64;100323.09;4910607;29;20222;-76
2022/02/13 09:25:11;;;;;;;5.40;4.87;;;;;;;6.51;62.58;100319.78;4910610;29;20198;-76
2022/02/13 09:27:38;;;;;;;5.33;4.47;;;;;;;6.53;62.03;100317.78;4934761;23;20562;-76
2022/02/13 09:30:07;;;;;;;8.73;4.37;;;;;;;6.63;61.28;100319.19;4929264;29;20186;-76
2022/02/13 09:32:34;;;;;;;5.33;4.03;;;;;;;6.63;59.76;100307.69;4929507;29;20213;-76
2022/02/13 09:35:03;;;;;;;5.70;4.60;;;;;;;6.78;59.96;100324.56;4924394;23;20308;-76
2022/02/13 09:37:43;;;;;;;5.73;4.50;;;;;;;6.82;60.58;100317.88;4922548;29;20198;-76
2022/02/13 09:40:14;;;;;;;5.07;4.13;;;;;;;6.92;57.98;100312.31;4919734;29;20206;-76
2022/02/13 09:42:44;;;;;;;4.73;4.20;;;;;;;6.88;58.28;100309.19;4925059;29;20209;-76
2022/02/13 09:45:11;;;;;;;5.27;4.20;;;;;;;7.02;60.26;100316.38;4911640;29;20297;-76
2022/02/13 09:47:38;;;;;;;5.60;4.47;;;;;;;7.12;59.23;100307.31;4902104;23;20255;-76
2022/02/13 09:50:11;;;;;;;5.60;4.03;;;;;;;7.21;57.40;100306.22;4905159;29;20195;-76
2022/02/13 09:52:39;;;;;;;6.67;4.30;;;;;;;7.29;57.90;100304.28;4908987;29;20208;-76
2022/02/13 09:55:06;;;;;;;5.60;4.00;;;;;;;7.28;57.13;100305.31;4909948;29;20191;-76
2022/02/13 10:00:23;;;;;;;4.97;4.07;;;;;;;7.45;56.38;100305.97;4904361;29;20207;-76
2022/02/13 10:02:50;;;;;;;4.63;3.80;;;;;;;7.56;55.61;100302.03;4906951;29;20266;-76
2022/02/13 10:05:20;;;;;;;5.47;3.80;;;;;;;7.73;55.19;100303.50;4908444;29;20195;-76
2022/02/13 10:07:52;;;;;;;3.93;3.50;;;;;;;7.74;54.17;100287.31;4894476;29;20490;-77
2022/02/13 10:10:19;;;;;;;4.43;3.73;;;;;;;7.84;54.97;100293.16;4907261;29;20187;-77
2022/02/13 10:12:49;;;;;;;5.73;3.70;;;;;;;7.89;53.10;100293.44;4890167;29;20504;-77
2022/02/13 10:15:30;;;;;;;4.50;4.10;;;;;;;7.96;53.70;100286.34;5119366;27;20544;-76
2022/02/13 10:18:02;;;;;;;5.33;3.97;;;;;;;8.06;52.27;100272.72;5118841;28;20230;-76
2022/02/13 10:20:38;;;;;;;4.50;4.00;;;;;;;8.15;52.37;100287.59;5119511;28;20598;-76
2022/02/13 10:23:10;;;;;;;4.40;3.57;;;;;;;8.21;51.57;100276.16;5099923;28;20226;-76
2022/02/13 10:25:37;;;;;;;4.00;3.60;;;;;;;8.20;51.13;100277.19;5118026;28;20587;-76
2022/02/13 10:28:15;;;;;;;4.00;3.60;;;;;;;8.20;51.98;100261.19;5119225;28;20544;-76
2022/02/13 10:30:44;;;;;;;6.03;3.90;;;;;;;8.32;51.45;100261.53;5117407;28;20171;-76
2022/02/13 10:33:26;;;;;;;4.40;4.00;;;;;;;8.34;50.25;100249.66;5123966;22;20580;-76
2022/02/13 10:36:02;;;;;;;4.03;3.63;;;;;;;8.43;51.03;100247.69;5096384;28;20519;-76
2022/02/13 10:38:31;;;;;;;4.10;3.73;;;;;;;8.53;50.67;100248.19;5083390;28;20208;-76
2022/02/13 10:41:19;;;;;;;4.03;3.60;;;;;;;8.61;50.04;100240.03;5097388;28;20194;-76
2022/02/13 10:44:03;;;;;;;4.30;3.40;;;;;;;8.55;49.93;100226.63;5100013;28;20250;-75
2022/02/13 10:46:50;;;;;;;5.40;4.03;;;;;;;8.77;49.17;100226.41;5137232;22;20262;-76
2022/02/13 10:49:22;;;;;;;4.23;3.70;;;;;;;8.86;49.64;100228.94;5111312;22;20226;-76
2022/02/13 10:51:49;;;;;;;5.73;3.93;;;;;;;8.99;48.53;100221.84;5112663;22;20191;-76
2022/02/13 10:54:16;;;;;;;4.67;3.90;;;;;;;8.96;47.32;100213.41;5128483;22;20254;-76
2022/02/13 10:56:43;;;;;;;6.27;4.13;;;;;;;9.07;47.88;100215.53;5122714;28;20187;-76
2022/02/13 10:59:15;;;;;;;4.60;4.10;;;;;;;8.90;47.98;100207.00;5121055;28;20265;-76
2022/02/13 11:01:50;;;;;;;4.43;3.60;;;;;;;9.03;49.68;100207.06;5142792;28;20184;-76
2022/02/13 11:04:19;;;;;;;4.47;3.97;;;;;;;9.16;48.38;100204.47;5140548;28;20166;-76
2022/02/13 11:06:48;;;;;;;4.83;3.93;;;;;;;9.22;47.72;100186.84;5141860;28;20190;-76
2022/02/13 11:09:26;;;;;;;4.90;4.20;;;;;;;9.23;47.08;100185.81;5141184;28;20176;-76
2022/02/13 11:12:00;;;;;;;4.53;4.03;;;;;;;9.32;46.76;100183.81;5137090;22;20218;-75
2022/02/13 11:14:40;;;;;;;4.43;4.03;;;;;;;9.43;46.70;100177.88;5123890;28;20233;-76
2022/02/13 11:17:11;;;;;;;4.00;3.47;;;;;;;9.44;46.62;100168.84;5142017;28;20179;-75
2022/02/13 11:19:42;;;;;;;3.83;3.53;;;;;;;9.50;45.31;100165.38;5122358;28;20205;-76
2022/02/13 11:22:16;;;;;;;4.07;3.73;;;;;;;9.51;44.63;100167.84;5122136;28;20656;-76
2022/02/13 11:24:53;;;;;;;5.40;4.10;;;;;;;9.52;45.09;100165.97;5144550;22;20230;-76
2022/02/13 11:27:21;;;;;;;4.77;3.60;;;;;;;9.59;45.44;100158.81;5092821;28;20289;-76
2022/02/13 11:29:53;;;;;;;4.83;4.20;;;;;;;9.61;45.47;100146.09;5125750;28;20622;-74
2022/02/13 11:32:36;;;;;;;4.43;3.87;;;;;;;9.64;44.32;100138.47;5125788;28;20451;-76
2022/02/13 11:35:12;;;;;;;6.10;4.20;;;;;;;9.61;45.44;100130.81;5129145;28;20198;-76
2022/02/13 11:38:03;;;;;;;4.43;4.03;;;;;;;9.70;45.88;100129.63;5127977;28;20191;-76
2022/02/13 11:40:33;;;;;;;5.47;3.93;;;;;;;9.70;45.80;100126.94;5110594;28;20175;-76
2022/02/13 11:43:02;;;;;;;4.20;3.80;;;;;;;9.70;46.00;100121.59;5128829;28;20229;-76
2022/02/13 11:45:46;;;;;;;5.17;3.80;;;;;;;9.64;44.99;100118.91;5128849;28;20235;-76